createdAt,value
2023-01-11T00:00:56.917Z,61.41
2023-01-11T00:03:24.189Z,61.13
2023-01-11T00:05:55.832Z,60.88
2023-01-11T00:08:24.460Z,60.83
2023-01-11T00:10:51.807Z,61.32
2023-01-11T00:13:19.218Z,61.31
2023-01-11T00:15:46.253Z,61.77
2023-01-11T00:18:13.185Z,61.70
2023-01-11T00:20:41.768Z,61.76
2023-01-11T00:23:08.790Z,61.56
2023-01-11T00:25:36.292Z,61.39
2023-01-11T00:28:03.847Z,61.25
2023-01-11T00:30:30.775Z,61.19
2023-01-11T00:33:00.064Z,61.76
2023-01-11T00:35:29.660Z,61.76
2023-01-11T00:37:56.892Z,62.40
2023-01-11T00:40:24.337Z,62.59
2023-01-11T00:43:10.074Z,62.45
2023-01-11T00:45:56.176Z,62.34
2023-01-11T00:48:23.263Z,62.41
2023-01-11T00:50:55.151Z,61.79
2023-01-11T00:53:22.138Z,61.68
2023-01-11T00:55:49.139Z,62.14
2023-01-11T00:58:16.316Z,62.13
2023-01-11T01:00:43.326Z,62.52
2023-01-11T01:03:10.635Z,63.04
2023-01-11T01:05:39.437Z,63.11
2023-01-11T01:08:07.063Z,63.17
2023-01-11T01:10:34.155Z,63.33
2023-01-11T01:13:19.555Z,63.04
2023-01-11T01:15:46.621Z,63.04
2023-01-11T01:18:13.617Z,62.37
2023-01-11T01:20:40.901Z,62.39
2023-01-11T01:23:07.936Z,62.49
2023-01-11T01:25:37.793Z,62.42
2023-01-11T01:28:05.034Z,62.61
2023-01-11T01:30:31.971Z,62.13
2023-01-11T01:32:59.217Z,61.76
2023-01-11T01:35:26.165Z,62.37
2023-01-11T01:37:53.671Z,62.76
2023-01-11T01:40:21.835Z,62.41
2023-01-11T01:42:54.612Z,62.46
2023-01-11T01:45:28.510Z,62.05
2023-01-11T01:48:01.884Z,61.86
2023-01-11T01:50:38.665Z,61.57
2023-01-11T01:53:17.135Z,61.12
2023-01-11T01:55:49.535Z,61.16
2023-01-11T01:58:21.305Z,60.89
2023-01-11T02:00:48.591Z,61.71
2023-01-11T02:03:22.928Z,62.25
2023-01-11T02:05:52.331Z,62.20
2023-01-11T02:08:31.460Z,62.53
2023-01-11T02:10:59.443Z,62.89
2023-01-11T02:13:27.201Z,62.57
2023-01-11T02:16:08.425Z,62.37
2023-01-11T02:18:37.207Z,61.75
2023-01-11T02:21:25.414Z,61.64
2023-01-11T02:24:26.333Z,61.77
2023-01-11T02:27:14.184Z,62.48
2023-01-11T02:30:06.413Z,63.17
2023-01-11T02:33:49.755Z,63.63
2023-01-11T02:36:53.910Z,64.20
2023-01-11T02:39:45.554Z,64.42
2023-01-11T02:42:37.600Z,64.58
2023-01-11T02:46:02.148Z,63.79
2023-01-11T02:48:51.904Z,63.40
2023-01-11T02:51:41.307Z,63.45
2023-01-11T02:54:11.717Z,63.63
2023-01-11T02:56:43.893Z,63.44
2023-01-11T02:59:24.759Z,63.59
2023-01-11T03:01:55.820Z,63.60
2023-01-11T03:04:25.812Z,63.71
2023-01-11T03:07:23.689Z,63.98
2023-01-11T03:09:57.005Z,64.01
2023-01-11T03:13:00.655Z,64.27
2023-01-11T03:15:57.149Z,63.78
2023-01-11T03:19:09.560Z,63.54
2023-01-11T03:21:54.617Z,63.82
2023-01-11T03:25:07.331Z,63.58
2023-01-11T03:28:04.620Z,63.40
2023-01-11T03:30:56.663Z,63.62
2023-01-11T03:33:46.779Z,63.46
2023-01-11T03:36:33.429Z,63.80
2023-01-11T03:39:34.416Z,64.07
2023-01-11T03:42:05.622Z,64.17
2023-01-11T03:44:40.587Z,64.31
2023-01-11T03:47:12.541Z,64.29
2023-01-11T03:49:50.550Z,64.49
2023-01-11T03:52:25.685Z,64.27
2023-01-11T03:54:55.662Z,63.90
2023-01-11T03:57:37.035Z,64.03
2023-01-11T04:00:06.892Z,63.67
2023-01-11T04:02:39.544Z,63.09
2023-01-11T04:05:08.568Z,63.20
2023-01-11T04:07:35.913Z,62.75
2023-01-11T04:10:03.884Z,62.71
2023-01-11T04:12:30.789Z,63.04
2023-01-11T04:14:57.992Z,62.75
2023-01-11T04:17:24.856Z,62.58
2023-01-11T04:19:52.006Z,62.49
2023-01-11T04:22:18.991Z,62.73
2023-01-11T04:24:46.039Z,62.69
2023-01-11T04:27:13.185Z,63.17
2023-01-11T04:29:40.429Z,63.01
2023-01-11T04:32:07.446Z,63.36
2023-01-11T04:34:34.621Z,63.02
2023-01-11T04:37:01.844Z,63.15
2023-01-11T04:39:28.909Z,62.77
2023-01-11T04:42:14.121Z,62.71
2023-01-11T04:44:41.302Z,62.54
2023-01-11T04:47:08.763Z,63.01
2023-01-11T04:49:35.687Z,62.94
2023-01-11T04:52:02.667Z,63.17
2023-01-11T04:54:29.633Z,63.11
2023-01-11T04:56:58.179Z,63.54
2023-01-11T04:59:25.371Z,63.27
2023-01-11T05:01:52.329Z,63.51
2023-01-11T05:04:19.629Z,63.23
2023-01-11T05:06:47.044Z,62.94
2023-01-11T05:09:17.645Z,63.15
2023-01-11T05:11:45.204Z,62.85
2023-01-11T05:14:12.975Z,62.75
2023-01-11T05:16:39.948Z,62.40
2023-01-11T05:19:07.298Z,62.09
2023-01-11T05:21:37.095Z,62.52
2023-01-11T05:24:06.972Z,62.88
2023-01-11T05:26:37.713Z,62.88
2023-01-11T05:29:11.632Z,62.97
2023-01-11T05:31:40.733Z,62.89
2023-01-11T05:34:10.601Z,62.72
2023-01-11T05:36:37.633Z,62.66
2023-01-11T05:39:06.067Z,62.69
2023-01-11T05:41:33.537Z,62.60
2023-01-11T05:44:19.032Z,62.30
2023-01-11T05:46:46.094Z,62.27
2023-01-11T05:49:15.049Z,62.54
2023-01-11T05:51:43.248Z,62.51
2023-01-11T05:54:14.212Z,62.37
2023-01-11T05:56:44.992Z,62.79
2023-01-11T05:59:12.413Z,62.86
2023-01-11T06:01:39.739Z,62.68
2023-01-11T06:04:08.398Z,62.27
2023-01-11T06:06:36.136Z,62.28
2023-01-11T06:09:03.429Z,62.64
2023-01-11T06:11:30.785Z,62.55
2023-01-11T06:13:57.838Z,62.66
2023-01-11T06:16:24.938Z,62.89
2023-01-11T06:18:53.623Z,63.00
2023-01-11T06:21:21.552Z,62.95
2023-01-11T06:23:53.197Z,62.92
2023-01-11T06:26:23.086Z,63.18
2023-01-11T06:28:51.178Z,63.10
2023-01-11T06:31:19.146Z,63.08
2023-01-11T06:33:47.168Z,63.33
2023-01-11T06:36:15.886Z,63.21
2023-01-11T06:38:44.177Z,63.09
2023-01-11T06:41:12.595Z,62.80
2023-01-11T06:43:42.405Z,62.93
2023-01-11T06:46:14.776Z,62.66
2023-01-11T06:48:42.623Z,62.74
2023-01-11T06:51:13.345Z,62.75
2023-01-11T06:53:45.900Z,62.34
2023-01-11T06:56:17.369Z,62.38
2023-01-11T06:58:46.930Z,62.71
2023-01-11T07:01:15.195Z,62.70
2023-01-11T07:03:42.530Z,62.32
2023-01-11T07:06:09.632Z,62.45
2023-01-11T07:08:38.192Z,62.30
2023-01-11T07:11:05.377Z,62.55
2023-01-11T07:13:32.490Z,62.28
2023-01-11T07:15:59.671Z,62.20
2023-01-11T07:18:26.636Z,62.19
2023-01-11T07:20:53.742Z,62.09
2023-01-11T07:23:20.857Z,62.35
2023-01-11T07:25:49.977Z,62.32
2023-01-11T07:28:17.091Z,61.98
2023-01-11T07:30:57.581Z,62.26
2023-01-11T07:33:26.247Z,61.92
2023-01-11T07:35:53.420Z,61.48
2023-01-11T07:38:20.607Z,61.61
2023-01-11T07:40:47.756Z,61.04
2023-01-11T07:43:15.479Z,60.73
2023-01-11T07:45:47.862Z,60.60
2023-01-11T07:48:20.740Z,61.18
2023-01-11T07:50:48.905Z,60.82
2023-01-11T07:53:16.433Z,60.84
2023-01-11T07:55:43.520Z,61.07
2023-01-11T07:58:12.968Z,61.06
2023-01-11T08:00:41.153Z,61.00
2023-01-11T08:03:09.018Z,61.07
2023-01-11T08:05:36.380Z,61.11
2023-01-11T08:08:04.438Z,61.12
2023-01-11T08:10:31.602Z,61.22
2023-01-11T08:13:17.480Z,61.22
2023-01-11T08:15:44.868Z,61.04
2023-01-11T08:18:14.075Z,61.36
2023-01-11T08:20:41.673Z,61.18
2023-01-11T08:23:10.370Z,61.00
2023-01-11T08:25:38.239Z,61.05
2023-01-11T08:28:07.267Z,61.27
2023-01-11T08:30:36.621Z,61.32
2023-01-11T08:33:06.814Z,61.17
2023-01-11T08:35:39.135Z,61.24
2023-01-11T08:38:06.788Z,61.48
2023-01-11T08:40:34.325Z,61.65
2023-01-11T08:43:01.543Z,61.46
2023-01-11T08:45:29.173Z,61.52
2023-01-11T08:47:56.657Z,61.44
2023-01-11T08:50:23.689Z,61.71
2023-01-11T08:52:51.924Z,61.58
2023-01-11T08:55:20.044Z,61.03
2023-01-11T08:57:47.825Z,61.12
2023-01-11T09:00:15.656Z,60.78
2023-01-11T09:02:45.140Z,60.51
2023-01-11T09:05:12.348Z,59.94
2023-01-11T09:07:39.511Z,60.41
2023-01-11T09:10:07.263Z,60.03
2023-01-11T09:12:34.728Z,60.32
2023-01-11T09:15:02.395Z,60.77
2023-01-11T09:17:29.309Z,60.54
2023-01-11T09:19:56.476Z,60.27
2023-01-11T09:22:23.751Z,60.61
2023-01-11T09:24:50.784Z,59.50
2023-01-11T09:27:18.235Z,58.57
2023-01-11T09:29:46.177Z,59.07
2023-01-11T09:32:13.254Z,58.34
2023-01-11T09:34:41.835Z,58.21
2023-01-11T09:37:09.127Z,58.06
2023-01-11T09:39:37.219Z,57.92
2023-01-11T09:42:19.364Z,57.92
2023-01-11T09:45:15.925Z,57.73
2023-01-11T09:47:52.530Z,58.24
2023-01-11T09:50:32.658Z,57.71
2023-01-11T09:53:04.996Z,57.48
2023-01-11T09:55:43.401Z,56.26
2023-01-11T09:58:50.988Z,57.12
2023-01-11T10:01:40.230Z,56.70
2023-01-11T10:04:47.764Z,56.20
2023-01-11T10:07:49.666Z,56.30
2023-01-11T10:18:22.627Z,55.71
2023-01-11T10:18:33.349Z,55.87
2023-01-11T10:20:37.879Z,55.19
2023-01-11T10:23:47.531Z,54.96
2023-01-11T10:26:36.378Z,55.23
2023-01-11T10:30:07.195Z,55.34
2023-01-11T10:32:45.870Z,54.51
2023-01-11T10:36:06.044Z,54.85
2023-01-11T10:38:58.915Z,54.58
2023-01-11T10:41:38.632Z,54.26
2023-01-11T10:44:19.259Z,54.16
2023-01-11T10:46:53.222Z,54.60
2023-01-11T10:49:44.907Z,54.28
2023-01-11T10:52:44.451Z,55.15
2023-01-11T10:55:25.921Z,55.21
2023-01-11T10:58:07.122Z,54.14
2023-01-11T11:00:58.718Z,54.55
2023-01-11T11:04:00.663Z,53.98
2023-01-11T11:06:38.164Z,52.14
2023-01-11T11:09:42.653Z,52.93
2023-01-11T11:12:26.128Z,53.35
2023-01-11T11:15:29.511Z,53.44
2023-01-11T11:17:56.997Z,53.12
2023-01-11T11:20:29.845Z,52.78
2023-01-11T11:22:57.635Z,52.72
2023-01-11T11:25:38.301Z,53.41
2023-01-11T11:28:32.582Z,53.05
2023-01-11T11:31:05.726Z,52.93
2023-01-11T11:33:40.347Z,52.76
2023-01-11T11:36:11.090Z,53.20
2023-01-11T11:38:41.462Z,52.57
2023-01-11T11:41:17.186Z,53.36
2023-01-11T11:43:47.625Z,53.00
2023-01-11T11:46:18.837Z,52.82
2023-01-11T11:49:15.949Z,52.97
2023-01-11T11:51:46.120Z,53.17
2023-01-11T11:54:37.633Z,52.58
2023-01-11T11:57:35.863Z,53.09
2023-01-11T12:00:09.293Z,53.55
2023-01-11T12:02:50.362Z,53.68
2023-01-11T12:05:17.668Z,53.45
2023-01-11T12:07:55.166Z,54.14
2023-01-11T12:10:28.653Z,53.86
2023-01-11T12:13:02.149Z,53.62
2023-01-11T12:15:34.223Z,53.16
2023-01-11T12:18:37.674Z,53.65
2023-01-11T12:21:25.005Z,54.17
2023-01-11T12:24:23.008Z,54.36
2023-01-11T12:27:00.950Z,54.33
2023-01-11T12:30:01.831Z,54.76
2023-01-11T12:32:59.737Z,54.68
2023-01-11T12:35:40.805Z,54.66
2023-01-11T12:38:39.624Z,54.68
2023-01-11T12:41:51.546Z,54.79
2023-01-11T12:44:49.016Z,54.51
2023-01-11T12:47:40.695Z,54.31
2023-01-11T12:50:25.020Z,54.27
2023-01-11T12:53:27.231Z,54.41
2023-01-11T12:56:28.388Z,54.24
2023-01-11T12:59:04.940Z,53.88
2023-01-11T13:01:45.955Z,54.22
2023-01-11T13:04:33.509Z,54.03
2023-01-11T13:07:30.457Z,53.94
2023-01-11T13:10:09.613Z,54.12
2023-01-11T13:12:50.666Z,54.35
2023-01-11T13:15:46.632Z,54.39
2023-01-11T13:19:01.450Z,54.56
2023-01-11T13:21:44.643Z,54.80
2023-01-11T13:24:18.598Z,54.94
2023-01-11T13:26:50.491Z,54.60
2023-01-11T13:29:29.464Z,54.91
2023-01-11T13:32:01.303Z,55.13
2023-01-11T13:34:38.813Z,54.82
2023-01-11T13:37:17.906Z,55.23
2023-01-11T13:40:13.178Z,55.38
2023-01-11T13:42:47.588Z,55.35
2023-01-11T13:45:21.855Z,55.48
2023-01-11T13:47:57.100Z,55.74
2023-01-11T13:50:37.810Z,55.41
2023-01-11T13:57:34.273Z,55.82
2023-01-11T14:00:19.520Z,56.00
2023-01-11T14:02:59.333Z,56.15
2023-01-11T14:05:35.623Z,56.27
2023-01-11T14:08:25.712Z,56.22
2023-01-11T14:11:42.000Z,56.28
2023-01-11T14:14:46.430Z,56.04
2023-01-11T14:18:05.638Z,56.13
2023-01-11T14:20:40.848Z,56.33
2023-01-11T14:23:20.569Z,56.25
2023-01-11T14:26:21.603Z,56.22
2023-01-11T14:28:59.389Z,56.19
2023-01-11T14:44:29.584Z,56.46
2023-01-11T14:47:18.084Z,56.74
2023-01-11T14:50:06.008Z,57.18
2023-01-11T14:52:40.701Z,57.19
2023-01-11T14:55:30.633Z,57.22
2023-01-11T14:58:03.233Z,57.49
2023-01-11T15:00:30.030Z,57.43
2023-01-11T15:02:59.595Z,57.60
2023-01-11T15:05:38.300Z,57.48
2023-01-11T15:08:14.260Z,57.64
2023-01-11T15:11:01.753Z,57.60
2023-01-11T15:13:44.624Z,57.50
2023-01-11T15:16:44.812Z,57.83
2023-01-11T15:19:33.857Z,57.67
2023-01-11T15:22:04.542Z,57.91
2023-01-11T15:24:39.851Z,57.93
2023-01-11T15:27:07.146Z,58.12
2023-01-11T15:29:46.044Z,58.09
2023-01-11T15:32:34.869Z,58.28
2023-01-11T15:35:26.799Z,58.24
2023-01-11T15:38:17.471Z,58.15
2023-01-11T15:40:50.173Z,58.27
2023-01-11T15:43:48.565Z,58.33
2023-01-11T15:46:55.194Z,58.94
2023-01-11T15:49:34.159Z,58.84
2023-01-11T15:52:31.375Z,58.70
2023-01-11T15:55:41.652Z,58.86
2023-01-11T15:58:31.803Z,58.92
2023-01-11T16:01:20.200Z,58.93
2023-01-11T16:04:05.395Z,58.78
2023-01-11T16:06:53.769Z,58.84
2023-01-11T16:09:43.412Z,58.88
2023-01-11T16:12:19.350Z,58.83
2023-01-11T16:15:38.486Z,58.77
2023-01-11T16:18:20.467Z,59.30
2023-01-11T16:21:21.649Z,59.20
2023-01-11T16:23:49.357Z,59.43
2023-01-11T16:26:20.316Z,59.47
2023-01-11T16:28:56.855Z,59.77
2023-01-11T16:31:25.486Z,59.69
2023-01-11T16:33:53.335Z,59.75
2023-01-11T16:36:23.415Z,59.89
2023-01-11T16:39:11.126Z,59.96
2023-01-11T16:41:46.911Z,59.92
2023-01-11T16:44:41.805Z,59.72
2023-01-11T16:47:16.898Z,59.89
2023-01-11T16:49:49.996Z,59.78
2023-01-11T16:52:31.256Z,59.54
2023-01-11T16:55:02.058Z,59.62
2023-01-11T16:57:36.293Z,59.55
2023-01-11T17:00:32.432Z,59.48
2023-01-11T17:03:24.165Z,59.48
2023-01-11T17:06:03.040Z,59.61
2023-01-11T17:08:34.829Z,59.53
2023-01-11T17:11:42.294Z,59.35
2023-01-11T17:14:30.841Z,59.40
2023-01-11T17:17:02.492Z,59.49
2023-01-11T17:19:43.129Z,59.40
2023-01-11T17:22:29.889Z,59.34
2023-01-11T17:25:14.548Z,59.31
2023-01-11T17:27:50.890Z,59.47
2023-01-11T17:30:23.010Z,59.48
2023-01-11T17:32:53.728Z,59.51
2023-01-11T17:35:30.808Z,59.95
2023-01-11T17:38:08.103Z,60.27
2023-01-11T17:40:38.967Z,60.26
2023-01-11T17:43:28.826Z,60.15
2023-01-11T17:45:58.205Z,60.19
2023-01-11T17:48:27.400Z,60.25
2023-01-11T17:51:01.016Z,60.23
2023-01-11T17:53:36.240Z,60.06
2023-01-11T17:56:33.045Z,60.00
2023-01-11T17:59:11.899Z,60.05
2023-01-11T18:01:39.033Z,60.42
2023-01-11T18:04:05.972Z,60.46
2023-01-11T18:06:39.980Z,60.65
2023-01-11T18:09:28.489Z,60.38
2023-01-11T18:12:25.993Z,60.38
2023-01-11T18:15:02.957Z,60.67
2023-01-11T18:17:32.800Z,60.71
2023-01-11T18:20:00.914Z,61.01
2023-01-11T18:22:37.407Z,61.08
2023-01-11T18:25:22.399Z,61.47
2023-01-11T18:27:50.176Z,61.65
2023-01-11T18:30:32.067Z,61.68
2023-01-11T18:33:04.465Z,62.75
2023-01-11T18:35:31.385Z,63.33
2023-01-11T18:37:58.247Z,63.75
2023-01-11T18:40:25.213Z,63.85
2023-01-11T18:42:53.715Z,63.84
2023-01-11T18:45:21.841Z,64.00
2023-01-11T18:47:48.716Z,64.09
2023-01-11T18:50:18.146Z,64.61
2023-01-11T18:52:46.366Z,64.70
2023-01-11T18:55:14.637Z,65.62
2023-01-11T18:57:42.504Z,65.26
2023-01-11T19:00:14.419Z,65.66
2023-01-11T19:02:43.749Z,65.82
2023-01-11T19:05:14.803Z,66.02
2023-01-11T19:07:42.104Z,66.95
2023-01-11T19:10:13.699Z,67.17
2023-01-11T19:12:41.222Z,67.16
2023-01-11T19:15:08.834Z,66.94
2023-01-11T19:17:35.746Z,66.86
2023-01-11T19:20:03.183Z,67.10
2023-01-11T19:22:30.084Z,67.54
2023-01-11T19:24:57.033Z,67.58
2023-01-11T19:27:23.947Z,67.60
2023-01-11T19:29:52.611Z,67.80
2023-01-11T19:32:24.958Z,67.54
2023-01-11T19:34:53.221Z,68.01
2023-01-11T19:37:20.706Z,67.87
2023-01-11T19:39:47.679Z,68.14
2023-01-11T19:42:14.671Z,67.95
2023-01-11T19:44:41.628Z,67.72
2023-01-11T19:47:13.384Z,67.30
2023-01-11T19:49:41.776Z,67.83
2023-01-11T19:52:14.472Z,67.46
2023-01-11T19:54:43.361Z,67.48
2023-01-11T19:57:15.281Z,67.60
2023-01-11T19:59:42.531Z,67.56
2023-01-11T20:02:12.923Z,67.73
2023-01-11T20:04:40.387Z,67.60
2023-01-11T20:07:09.159Z,67.52
2023-01-11T20:09:39.297Z,67.78
2023-01-11T20:12:08.249Z,67.38
2023-01-11T20:14:36.409Z,67.83
2023-01-11T20:17:03.446Z,68.10
2023-01-11T20:19:30.557Z,67.68
2023-01-11T20:21:57.612Z,67.71
2023-01-11T20:24:33.556Z,67.59
2023-01-11T20:27:03.461Z,67.76
2023-01-11T20:29:30.630Z,67.53
2023-01-11T20:32:13.395Z,67.51
2023-01-11T20:34:44.795Z,67.41
2023-01-11T20:37:11.726Z,67.02
2023-01-11T20:39:38.646Z,67.48
2023-01-11T20:42:05.564Z,67.31
2023-01-11T20:44:32.458Z,67.64
2023-01-11T20:47:00.094Z,67.61
2023-01-11T20:49:29.231Z,67.36
2023-01-11T20:51:56.602Z,67.29
2023-01-11T20:54:23.698Z,67.43
2023-01-11T20:56:50.796Z,67.22
2023-01-11T20:59:19.957Z,67.83
2023-01-11T21:01:49.295Z,67.37
2023-01-11T21:04:17.773Z,67.53
2023-01-11T21:06:50.366Z,67.33
2023-01-11T21:09:18.178Z,67.29
2023-01-11T21:11:52.337Z,67.26
2023-01-11T21:14:20.083Z,67.65
2023-01-11T21:16:47.000Z,67.38
2023-01-11T21:19:15.582Z,67.45
2023-01-11T21:21:42.609Z,67.35
2023-01-11T21:24:13.105Z,67.09
2023-01-11T21:26:41.957Z,67.32
2023-01-11T21:29:10.455Z,67.12
2023-01-11T21:31:38.243Z,67.36
2023-01-11T21:34:05.603Z,67.11
2023-01-11T21:36:32.922Z,67.10
2023-01-11T21:39:00.608Z,66.79
2023-01-11T21:41:49.221Z,66.73
2023-01-11T21:44:18.004Z,66.53
2023-01-11T21:46:45.780Z,66.92
2023-01-11T21:49:13.959Z,66.68
2023-01-11T21:51:42.195Z,67.01
2023-01-11T21:54:13.510Z,67.00
2023-01-11T21:56:41.841Z,67.23
2023-01-11T21:59:09.234Z,67.03
2023-01-11T22:01:38.023Z,67.25
2023-01-11T22:04:14.266Z,67.11
2023-01-11T22:06:47.184Z,67.35
2023-01-11T22:09:14.173Z,67.01
2023-01-11T22:11:41.047Z,67.07
2023-01-11T22:14:08.784Z,66.79
2023-01-11T22:16:36.987Z,67.01
2023-01-11T22:19:07.257Z,66.86
2023-01-11T22:21:35.557Z,66.86
2023-01-11T22:24:03.012Z,66.77
2023-01-11T22:26:33.281Z,66.63
2023-01-11T22:29:12.624Z,66.88
2023-01-11T22:31:42.165Z,66.96
2023-01-11T22:34:10.315Z,66.93
2023-01-11T22:36:37.885Z,66.80
2023-01-11T22:39:04.917Z,66.61
2023-01-11T22:41:32.223Z,66.80
2023-01-11T22:43:59.152Z,66.73
2023-01-11T22:46:27.392Z,66.77
2023-01-11T22:48:54.455Z,66.86
2023-01-11T22:51:24.876Z,66.76
2023-01-11T22:53:53.190Z,66.65
2023-01-11T22:56:24.796Z,66.88
2023-01-11T22:58:54.017Z,66.99
2023-01-11T23:01:24.914Z,67.01
2023-01-11T23:03:53.383Z,67.19
2023-01-11T23:06:30.450Z,67.09
2023-01-11T23:08:58.675Z,67.36
2023-01-11T23:11:48.163Z,67.21
2023-01-11T23:14:18.425Z,67.38
2023-01-11T23:16:47.290Z,67.11
2023-01-11T23:19:18.109Z,67.03
2023-01-11T23:21:46.775Z,66.95
2023-01-11T23:24:16.003Z,67.28
2023-01-11T23:26:43.488Z,67.38
2023-01-11T23:29:10.532Z,67.20
2023-01-11T23:31:37.672Z,67.27
2023-01-11T23:34:06.949Z,67.34
2023-01-11T23:36:38.075Z,67.36
2023-01-11T23:39:07.776Z,67.42
2023-01-11T23:41:54.128Z,67.27
2023-01-11T23:44:22.331Z,66.88
2023-01-11T23:47:08.958Z,67.13
2023-01-11T23:49:36.143Z,66.95
2023-01-11T23:52:03.314Z,67.37
2023-01-11T23:54:32.651Z,67.47
2023-01-11T23:57:01.224Z,67.79
2023-01-11T23:59:28.304Z,67.88
